Terminal Aerodrome Forecast
Issued by NWS Atlanta, GA

Home | Current Version | Previous Version | Text Only | Print | Product List | Glossary On
Versions: 1 2 3 4 5 6 7 8 9 10 11 12 13 14
000
FTUS42 KFFC 281342 AAA
TAFCSG
TAF AMD
KCSG 281342Z 2814/2912 15003KT P6SM OVC015
      TEMPO 2814/2815 1SM RA BR BKN008
     FM281500 21005KT P6SM OVC015
     FM281700 24006KT P6SM OVC025
     FM282000 26006KT P6SM VCSH OVC025
     FM290300 32005KT 6SM -RA BR OVC012
     FM290600 32005KT 3SM -RA BR OVC007=

USA.gov is the U.S. government's official web portal to all federal, state and local government web resources and services.